Tiempo atmosférico en la estación meteorológica de Benahavis, Málaga (399 m.)



Fecha
DESCASC
Temp. máxima en grados centígrados (hora)
DESCASC
Temp. mínima en grados centígrados (hora)
DESCASC
Temp. media en grados centígrados
DESCASC
Racha de viento máxima en m/sg (hora)
DESCASC
Velocidad máxima media en intervalos de 10 minutos(hora)
DESCASC
Precipitaciones diarias en mm
DESCASC
Precipitaciones de 00:00 a 06:00 en mm
DESCASC
Precipitaciones de 06:00 a 12:00 en mm
DESCASC
Precipitaciones de 12:00 a 18:00 en mm
DESCASC
Precipitaciones de 18:00 a 24:00 en mm
DESCASC
20-06-2018 24.9 (15:50) 17.8 (02:00) 21.3 7.22 (03:30) 4.17 (03:50) 0 0 0 0 0
19-06-2018 25 (13:10) 17.8 (07:20) 21.4 9.44 (13:40) 4.17 (13:50) 0 0 0 0 0
18-06-2018 26.6 (12:30) 18.7 (02:30) 22.7 8.06 (14:30) 3.61 (14:30) 0 0 0 0 0
17-06-2018 26.6 (16:30) 18.2 (03:30) 22.4 6.94 (15:00) 3.06 (15:10) 0 0 0 0 0
16-06-2018 26.5 (15:30) 17.4 (03:00) 21.9 5.83 (15:10) 3.33 (11:00) 0 0 0 0 0
15-06-2018 28.5 (17:10) 17.7 (07:20) 23.1 6.11 (03:10) 3.89 (03:10) 0 0 0 0 0
14-06-2018 29.8 (14:00) 20.2 (00:00) 25 6.39 (14:50) 3.33 (08:40) 0 0 0 0 0
13-06-2018 29.7 (15:30) 18.6 (04:40) 24.2 8.33 (15:30) 3.89 (15:20) 0 0 0 0 0
12-06-2018 28.1 (16:50) 15.5 (05:10) 21.8 7.78 (07:10) 3.89 (16:40) 0 0 0 0 0
11-06-2018 26.5 (17:10) 15.1 (06:20) 20.8 10.28 (18:20) 5 (15:40) 0 0 0 0 0
10-06-2018 26.5 (16:10) 13.9 (00:00) 20.2 10.83 (18:30) 4.72 (16:30) 0 0 0 0 0
09-06-2018 25.9 (16:10) 13.6 (00:00) 19.8 9.44 (20:30) 5 (19:20) 0 0 0 0 0
08-06-2018 25.7 (14:50) 15.9 (00:00) 20.8 7.78 (18:40) 4.44 (19:50) 0 0 0 0 0
07-06-2018 26 (16:30) 15 (00:00) 20.5 7.78 (17:00) 4.17 (17:00) 0 0 0 0 0
06-06-2018 23.6 (13:30) 13.5 (00:00) 18.6 11.67 (20:00) 5.83 (18:00) 0 0 0 0 0
05-06-2018 24.5 (16:30) 15.3 (00:00) 19.9 9.72 (12:10) 5.28 (12:20) 0 0 0 0 0
04-06-2018 28.7 (16:20) 14.8 (00:00) 21.8 10.28 (18:40) 5.28 (23:40) 0 0 0 0 0
03-06-2018 26.6 (17:10) 12.6 (00:00) 19.6 9.72 (20:30) 4.44 (18:50) 0 0 0 0 0
02-06-2018 24.5 (16:40) 12.3 (00:00) 18.4 10.83 (13:30) 5.83 (19:10) 2.4 0 0 0 2.4
01-06-2018 24.5 (16:30) 15.9 (00:00) 20.2 6.39 (15:20) 2.78 (12:50) 0 0 0 0 0
31-05-2018 24.3 (14:50) 14.2 (07:20) 19.2 6.39 (14:40) 3.06 (14:40) 0 0 0 0 0
30-05-2018 25.4 (16:50) 12.4 (00:00) 18.9 10 (17:40) 5.28 (15:40) 0 0 0 0 0
29-05-2018 23.4 (16:20) 12.7 (00:00) 18 13.33 (16:50) 7.5 (16:50) 0 0 0 0 0
28-05-2018 25.3 (16:50) 13.4 (00:00) 19.3 11.11 (15:20) 6.39 (18:00) 0 0 0 0 0
27-05-2018 24.6 (17:40) 15.9 (00:00) 20.3 10.28 (22:40) 5.83 (15:40) 0 0 0 0 0
26-05-2018 24.9 (16:40) 13.1 (00:00) 19 6.67 (12:30) 3.89 (14:40) 0 0 0 0 0
25-05-2018 22 (16:10) 13.7 (00:00) 17.8 9.17 (18:20) 5.28 (18:10) 0 0 0 0 0
24-05-2018 22.9 (17:40) 15.1 (00:00) 19 7.22 (16:50) 3.33 (18:10) 0 0 0 0 0
23-05-2018 22.7 (14:50) 14.3 (00:00) 18.5 8.33 (10:20) 4.44 (10:20) 0.2 0 0.2 0 0
22-05-2018 24 (16:10) 13.4 (00:00) 18.7 5 (14:20) 2.78 (14:00) 0 0 0 0 0

Gráficas

Temp. máximas Temp. mínimas Temp. medias Precipitaciones Rachas de viento máximas Velocidades máximas media en intervalos de 10 minutos

Datos horarios

Fecha y hora oficial Temperatura (ºC) Velocidad del viento (km/h) Dirección del viento Racha (km/h) Dirección de racha Precipitación (mm) Presión (hPa) Tendencia (hPa) Humedad (%)
2018-06-20 23:00:00 19.3 0 Calma 4 Nordeste 0 -- -- 73
2018-06-20 22:00:00 20.3 2 Nordeste 6 Sudoeste 0 -- -- 74
2018-06-20 21:00:00 20.9 0 Calma 9 Nordeste 0 -- -- 71
2018-06-20 20:00:00 20.8 6 Nordeste 17 Nordeste 0 -- -- 71
2018-06-20 19:00:00 21.6 6 Nordeste 17 Nordeste 0 -- -- 68
2018-06-20 18:00:00 22.3 9 Nordeste 19 Nordeste 0 -- -- 64
2018-06-20 17:00:00 24 9 Nordeste 26 Este 0 -- -- 57
2018-06-20 16:00:00 24.7 11 Nordeste 21 Norte 0 -- -- 53
2018-06-20 15:00:00 24.6 10 Nordeste 24 Nordeste 0 -- -- 52
2018-06-20 14:00:00 24.4 8 Nordeste 20 Nordeste 0 -- -- 52
2018-06-20 13:00:00 24.4 6 Norte 24 Nordeste 0 -- -- 52
2018-06-20 12:00:00 23.5 10 Nordeste 23 Nordeste 0 -- -- 53
2018-06-20 11:00:00 23.6 10 Nordeste 19 Este 0 -- -- 53
2018-06-20 10:00:00 22.6 8 Nordeste 18 Nordeste 0 -- -- 55
2018-06-20 09:00:00 20.3 2 Oeste 6 Nordeste 0 -- -- 59
2018-06-20 08:00:00 18.7 0 Calma 9 Nordeste 0 -- -- 62
2018-06-20 07:00:00 20.3 7 Nordeste 21 Norte 0 -- -- 51
2018-06-20 06:00:00 19.7 8 Nordeste 18 Nordeste 0 -- -- 55
2018-06-20 05:00:00 18.9 4 Nordeste 20 Nordeste 0 -- -- 63
2018-06-20 04:00:00 20.4 14 Nordeste 26 Nordeste 0 -- -- 57
2018-06-20 03:00:00 19.3 4 Nordeste 21 Nordeste 0 -- -- 64
2018-06-20 02:00:00 17.8 3 Este 9 Norte 0 -- -- 77
2018-06-20 01:00:00 18.7 3 Nordeste 10 Este 0 -- -- 69
2018-06-20 00:00:00 18.7 2 Nordeste 12 Nordeste 0 -- -- 66
2018-06-19 23:00:00 19 4 Este 8 Este 0 -- -- 68
2018-06-19 22:00:00 20 0 Calma 10 Este 0 -- -- 62
2018-06-19 21:00:00 21.4 4 Nordeste 18 Este 0 -- -- 57
2018-06-19 20:00:00 22.6 8 Nordeste 21 Nordeste 0 -- -- 53
2018-06-19 19:00:00 23 11 Nordeste 22 Nordeste 0 -- -- 53
2018-06-19 18:00:00 23.2 8 Norte 27 Nordeste 0 -- -- 55
2018-06-19 17:00:00 23.5 10 Nordeste 28 Nordeste 0 -- -- 53
2018-06-19 16:00:00 23.9 13 Nordeste 32 Nordeste 0 -- -- 51
2018-06-19 15:00:00 24.2 14 Nordeste 31 Nordeste 0 -- -- 51
2018-06-19 14:00:00 24.3 15 Nordeste 34 Nordeste 0 -- -- 49
2018-06-19 13:00:00 24.7 13 Nordeste 31 Nordeste 0 -- -- 47
2018-06-19 12:00:00 24.9 13 Nordeste 29 Nordeste 0 -- -- 43
2018-06-19 11:00:00 24.8 7 Nordeste 23 Este 0 -- -- 43
2018-06-19 10:00:00 23.9 8 Nordeste 20 Nordeste 0 -- -- 42
2018-06-19 09:00:00 21.8 4 Este 14 Este 0 -- -- 45
2018-06-19 08:00:00 18.7 2 Nordeste 5 Nordeste 0 -- -- 53
2018-06-19 07:00:00 18.1 0 Calma 6 Nordeste 0 -- -- 55
2018-06-19 06:00:00 18.8 3 Nordeste 8 Este 0 -- -- 48
2018-06-19 05:00:00 19.5 3 Nordeste 9 Nordeste 0 -- -- 47
2018-06-19 04:00:00 20.3 5 Nordeste 13 Nordeste 0 -- -- 46
2018-06-19 03:00:00 21 5 Nordeste 18 Nordeste 0 -- -- 46
2018-06-19 02:00:00 20.2 3 Nordeste 15 Nordeste 0 -- -- 54
2018-06-19 01:00:00 19.9 3 Nordeste 6 Nordeste 0 -- -- 54
2018-06-19 00:00:00 19.7 0 Calma 5 Nordeste 0 -- -- 56
2018-06-18 23:00:00 20.1 0 Calma 6 Sudoeste 0 -- -- 59
2018-06-18 22:00:00 21.1 2 Nordeste 6 Nordeste 0 -- -- 56
2018-06-18 21:00:00 22.3 5 Nordeste 13 Sur 0 -- -- 52
2018-06-18 20:00:00 23.3 8 Sur 14 Sur 0 -- -- 51
2018-06-18 19:00:00 23.9 5 Nordeste 17 Sudoeste 0 -- -- 48
2018-06-18 18:00:00 25 6 Nordeste 15 Norte 0 -- -- 44
2018-06-18 17:00:00 25.4 7 Nordeste 23 Nordeste 0 -- -- 44
2018-06-18 16:00:00 25.6 8 Nordeste 22 Nordeste 0 -- -- 44
2018-06-18 15:00:00 25.5 9 Nordeste 29 Nordeste 0 -- -- 45
2018-06-18 14:00:00 26.1 6 Nordeste 23 Norte 0 -- -- 41
2018-06-18 13:00:00 26 12 Nordeste 23 Nordeste 0 -- -- 39
2018-06-18 12:00:00 25.8 9 Nordeste 21 Nordeste 0 -- -- 42
2018-06-18 11:00:00 25.4 5 Nordeste 18 Este 0 -- -- 42
2018-06-18 10:00:00 24.6 5 Nordeste 12 Nordeste 0 -- -- 47
2018-06-18 09:00:00 23 2 Nordeste 6 Este 0 -- -- 47
2018-06-18 08:00:00 20.5 3 Nordeste 8 Este 0 -- -- 51
2018-06-18 07:00:00 19.2 0 Calma 6 Nordeste 0 -- -- 52
2018-06-18 06:00:00 19.2 0 Calma -- -- 0 -- -- 51
2018-06-18 05:00:00 19.3 0 Calma 7 Sudeste 0 -- -- 52
2018-06-18 04:00:00 19.7 4 Este 16 Nordeste 0 -- -- 49
2018-06-18 03:00:00 19.4 6 Este 15 Nordeste 0 -- -- 53
2018-06-18 02:00:00 18.9 3 Este 5 Sudeste 0 -- -- 59
2018-06-18 01:00:00 20 0 Calma 5 Sur 0 -- -- 53
2018-06-18 00:00:00 19.7 0 Calma 5 Este 0 -- -- 55
2018-06-17 23:00:00 20.3 3 Sudeste 5 Este 0 -- -- 52
2018-06-17 22:00:00 21 4 Este 11 Este 0 -- -- 50
2018-06-17 21:00:00 22.5 0 Calma 7 Sudoeste 0 -- -- 48
2018-06-17 20:00:00 22.9 2 Nordeste 20 Sur 0 -- -- 42
2018-06-17 19:00:00 24.5 9 Sudoeste 21 Sur 0 -- -- 40
2018-06-17 18:00:00 25.4 6 Nordeste 19 Norte 0 -- -- 35
2018-06-17 17:00:00 26.2 6 Nordeste 21 Nordeste 0 -- -- 32
2018-06-17 16:00:00 26 10 Nordeste 22 Nordeste 0 -- -- 34
2018-06-17 15:00:00 26 11 Nordeste 25 Nordeste 0 -- -- 35
2018-06-17 14:00:00 25.9 4 Este 19 Sur 0 -- -- 40
2018-06-17 13:00:00 25.9 9 Sudoeste 17 Sur 0 -- -- 35
2018-06-17 12:00:00 25.3 5 Norte 17 Este 0 -- -- 34
2018-06-17 11:00:00 25.4 4 Nordeste 13 Nordeste 0 -- -- 30
2018-06-17 10:00:00 23.6 4 Este 13 Nordeste 0 -- -- 33
2018-06-17 09:00:00 21.9 5 Nordeste 10 Nordeste 0 -- -- 40
2018-06-17 08:00:00 19.1 0 Calma 4 Nordeste 0 -- -- 50
2018-06-17 07:00:00 18.5 0 Calma 3 Sudeste 0 -- -- 59
2018-06-17 06:00:00 18.8 0 Calma 5 Nordeste 0 -- -- 56
2018-06-17 05:00:00 19.1 2 Este 6 Nordeste 0 -- -- 56
2018-06-17 04:00:00 18.5 3 Nordeste 8 Nordeste 0 -- -- 57
2018-06-17 03:00:00 18.5 3 Nordeste 8 Nordeste 0 -- -- 49
2018-06-17 02:00:00 19.5 0 Calma 4 Nordeste 0 -- -- 53
2018-06-17 01:00:00 20.1 0 Calma 4 Sudeste 0 -- -- 54
2018-06-17 00:00:00 19.7 3 Nordeste 5 Nordeste 0 -- -- 53
2018-06-16 23:00:00 20.1 0 Calma 2 Sudoeste 0 -- -- 46
2018-06-16 22:00:00 20.9 0 Calma 8 Nordeste 0 -- -- 41
2018-06-16 21:00:00 22.8 6 Nordeste 13 Sudoeste 0 -- -- 36
2018-06-16 20:00:00 25.1 6 Sudoeste 12 Sudoeste 0 -- -- 39
2018-06-16 19:00:00 25.6 7 Sudoeste 16 Sudoeste 0 -- -- 41
2018-06-16 18:00:00 26.3 9 Sudoeste 16 Oeste 0 -- -- 40
2018-06-16 17:00:00 26 5 Sur 16 Norte 0 -- -- 43
2018-06-16 16:00:00 26 8 Nordeste 21 Sudoeste 0 -- -- 45
2018-06-16 15:00:00 26.2 9 Sur 18 Sudoeste 0 -- -- 46
2018-06-16 14:00:00 26.1 6 Sur 16 Sudoeste 0 -- -- 49
2018-06-16 13:00:00 24.9 8 Sudoeste 15 Norte 0 -- -- 53
2018-06-16 12:00:00 23.9 8 Nordeste 18 Nordeste 0 -- -- 56
2018-06-16 11:00:00 24.1 12 Nordeste 19 Nordeste 0 -- -- 48
2018-06-16 10:00:00 22.9 0 Calma 5 Sudoeste 0 -- -- 54
2018-06-16 09:00:00 20.4 0 Calma 2 Nordeste 0 -- -- 62
2018-06-16 08:00:00 17.7 0 Calma 3 Este 0 -- -- 74
2018-06-16 07:00:00 17.6 0 Calma 3 Sudeste 0 -- -- 71
2018-06-16 06:00:00 17.7 0 Calma 3 Este 0 -- -- 75
2018-06-16 05:00:00 18.5 0 Calma 7 Nordeste 0 -- -- 71
2018-06-16 04:00:00 18 3 Nordeste 6 Nordeste 0 -- -- 73
2018-06-16 03:00:00 17.4 2 Sur 4 Sur 0 -- -- 77
2018-06-16 02:00:00 18.5 0 Calma 8 Nordeste 0 -- -- 75
2018-06-16 01:00:00 19.3 0 Calma 3 Nordeste 0 -- -- 69
2018-06-16 00:00:00 19.3 0 Calma 4 Nordeste 0 -- -- 70
2018-06-15 23:00:00 19.9 2 Este 6 Nordeste 0 -- -- 70
2018-06-15 22:00:00 21.2 4 Nordeste 6 Nordeste 0 -- -- 65
2018-06-15 21:00:00 22.8 2 Sudoeste 8 Nordeste 0 -- -- 63
2018-06-15 20:00:00 23.8 4 Sudoeste 13 Sudoeste 0 -- -- 61
2018-06-15 19:00:00 24.5 7 Sudoeste 13 Sudoeste 0 -- -- 62
2018-06-15 18:00:00 26 9 Sur 17 Sur 0 -- -- 56
2018-06-15 17:00:00 28.4 8 Sudoeste 15 Sudoeste 0 -- -- 49
2018-06-15 16:00:00 27.5 6 Sur 14 Sudoeste 0 -- -- 48
2018-06-15 15:00:00 25.3 7 Sur 19 Sur 0 -- -- 54
2018-06-15 14:00:00 26 7 Sur 19 Sudoeste 0 -- -- 52
2018-06-15 13:00:00 25 10 Sudoeste 19 Sudoeste 0 -- -- 57
2018-06-15 12:00:00 23.8 9 Sudoeste 16 Sudoeste 0 -- -- 60
2018-06-15 11:00:00 22.6 6 Sudoeste 14 Sur 0 -- -- 60
2018-06-15 10:00:00 21.9 4 Sudoeste 8 Sudoeste 0 -- -- 59
2018-06-15 09:00:00 20.4 0 Calma 3 Sudoeste 0 -- -- 59
2018-06-15 08:00:00 18 0 Calma 5 Nordeste 0 -- -- 65
2018-06-15 07:00:00 17.9 4 Nordeste 9 Nordeste 0 -- -- 66
2018-06-15 06:00:00 18.4 3 Este 6 Nordeste 0 -- -- 61
2018-06-15 05:00:00 19.6 0 Calma 6 Sudoeste 0 -- -- 60
2018-06-15 04:00:00 22.1 2 Oeste 22 Nordeste 0 -- -- 43
2018-06-15 03:00:00 23.9 13 Nordeste 21 Nordeste 0 -- -- 36
2018-06-15 02:00:00 22.5 6 Nordeste 8 Este 0 -- -- 42
2018-06-15 01:00:00 22.3 2 Sudeste 4 Sudeste 0 -- -- 45
2018-06-15 00:00:00 22.8 0 Calma 8 Nordeste 0 -- -- 47
2018-06-14 23:00:00 23.4 2 Este 6 Nordeste 0 -- -- 47
2018-06-14 22:00:00 24.3 4 Este 14 Nordeste 0 -- -- 51
2018-06-14 21:00:00 25.6 10 Nordeste 15 Nordeste 0 -- -- 46
2018-06-14 20:00:00 26.5 8 Nordeste 15 Nordeste 0 -- -- 45
2018-06-14 19:00:00 27.6 7 Sudoeste 15 Sudoeste 0 -- -- 44
2018-06-14 18:00:00 28.6 8 Sudoeste 21 Sur 0 -- -- 43
2018-06-14 17:00:00 29.2 6 Sur 19 Sudoeste 0 -- -- 34
2018-06-14 16:00:00 29.2 9 Sudoeste 21 Sudoeste 0 -- -- 37
2018-06-14 15:00:00 29.2 9 Sur 23 Sudoeste 0 -- -- 36
2018-06-14 14:00:00 29.8 12 Sudoeste 21 Sudoeste 0 -- -- 31
2018-06-14 13:00:00 28.9 6 Sudeste 18 Sudoeste 0 -- -- 36
2018-06-14 12:00:00 28.1 8 Sudoeste 16 Sur 0 -- -- 38
2018-06-14 11:00:00 28 6 Nordeste 16 Nordeste 0 -- -- 37
2018-06-14 10:00:00 26.8 8 Nordeste 16 Nordeste 0 -- -- 36
2018-06-14 09:00:00 25 10 Nordeste 18 Nordeste 0 -- -- 40
2018-06-14 08:00:00 22.2 7 Nordeste 14 Nordeste 0 -- -- 45
2018-06-14 07:00:00 20.6 9 Nordeste 12 Este 0 -- -- 47
2018-06-14 06:00:00 20.4 0 Calma 12 Nordeste 0 -- -- 50
2018-06-14 05:00:00 20.2 3 Este 11 Este 0 -- -- 52
2018-06-14 04:00:00 20.6 3 Este 8 Nordeste 0 -- -- 52
2018-06-14 03:00:00 21.8 3 Este 8 Sur 0 -- -- 48
2018-06-14 02:00:00 22.3 3 Sur 8 Nordeste 0 -- -- 50
2018-06-14 01:00:00 24.2 2 Sudeste 17 Norte 0 -- -- 44
2018-06-14 00:00:00 25.1 7 Norte 17 Norte 0 -- -- 39
2018-06-13 23:00:00 24.2 5 Norte 13 Norte 0 -- -- 40
2018-06-13 22:00:00 24.3 4 Este 13 Nordeste 0 -- -- 46
2018-06-13 21:00:00 26.3 3 Norte 18 Sudoeste 0 -- -- 39
2018-06-13 20:00:00 27.2 7 Nordeste 19 Nordeste 0 -- -- 41
2018-06-13 19:00:00 26.7 6 Nordeste 13 Este 0 -- -- 48
2018-06-13 18:00:00 26.7 5 Este 21 Nordeste 0 -- -- 48
2018-06-13 17:00:00 28.5 6 Sudoeste 25 Oeste 0 -- -- 46
2018-06-13 16:00:00 29.5 12 Sudoeste 30 Sudoeste 0 -- -- 42
2018-06-13 15:00:00 29 12 Sudoeste 26 Sudoeste 0 -- -- 40
2018-06-13 14:00:00 28.6 11 Sudoeste 21 Sudoeste 0 -- -- 38
2018-06-13 13:00:00 28.1 8 Sudoeste 16 Sudoeste 0 -- -- 40
2018-06-13 12:00:00 26.8 9 Sudoeste 19 Sur 0 -- -- 44
2018-06-13 11:00:00 26.4 6 Sudeste 17 Este 0 -- -- 42
2018-06-13 10:00:00 25.1 4 Este 16 Nordeste 0 -- -- 46
2018-06-13 09:00:00 23.6 8 Nordeste 19 Nordeste 0 -- -- 47
2018-06-13 08:00:00 21.4 8 Nordeste 23 Nordeste 0 -- -- 52
2018-06-13 07:00:00 20.5 9 Nordeste 22 Nordeste 0 -- -- 54
2018-06-13 06:00:00 19 6 Nordeste 14 Norte 0 -- -- 57
2018-06-13 05:00:00 18.8 5 Este 11 Este 0 -- -- 57
2018-06-13 04:00:00 19.1 3 Norte 9 Sur 0 -- -- 57
2018-06-13 03:00:00 19.5 3 Sur 15 Nordeste 0 -- -- 56
2018-06-13 02:00:00 19.4 4 Sur 10 Sur 0 -- -- 57
2018-06-13 01:00:00 19.4 5 Sudoeste 12 Sudoeste 0 -- -- 58
2018-06-13 00:00:00 19.7 4 Sudoeste 17 Nordeste 0 -- -- 54
2018-06-12 23:00:00 20 3 Sudoeste 13 Sudoeste 0 -- -- 58
2018-06-12 22:00:00 21.4 5 Sudoeste 23 Sudoeste 0 -- -- 54
2018-06-12 21:00:00 23.1 8 Sudoeste 22 Sudoeste 0 -- -- 47
2018-06-12 20:00:00 24.6 9 Sudoeste 21 Oeste 0 -- -- 43
2018-06-12 19:00:00 26.1 8 Sudoeste 23 Oeste 0 -- -- 40
2018-06-12 18:00:00 27 11 Sudoeste 25 Oeste 0 -- -- 38
2018-06-12 17:00:00 28 11 Sudoeste 28 Sudoeste 0 -- -- 35
2018-06-12 16:00:00 25.2 10 Sudoeste 24 Sudoeste 0 -- -- 40
2018-06-12 15:00:00 23.2 7 Sur 28 Nordeste 0 -- -- 49
2018-06-12 14:00:00 23.8 5 Noroeste 28 Sudoeste 0 -- -- 47
2018-06-12 13:00:00 23.7 9 Nordeste 21 Sudoeste 0 -- -- 46
2018-06-12 12:00:00 23.2 7 Noroeste 18 Oeste 0 -- -- 47
2018-06-12 11:00:00 22.4 3 Sudoeste 14 Nordeste 0 -- -- 48
2018-06-12 10:00:00 20.4 4 Sudoeste 10 Oeste 0 -- -- 51
2018-06-12 09:00:00 18.3 0 Calma 12 Nordeste 0 -- -- 61
2018-06-12 08:00:00 17.5 4 Nordeste 28 Norte 0 -- -- 62
2018-06-12 07:00:00 17.8 9 Norte 23 Nordeste 0 -- -- 58
2018-06-12 06:00:00 16.6 5 Norte 16 Nordeste 0 -- -- 61
2018-06-12 05:00:00 15.6 3 Sur 9 Sudoeste 0 -- -- 66
2018-06-12 04:00:00 15.9 3 Sur 8 Sudoeste 0 -- -- 69
2018-06-12 03:00:00 16.6 6 Sur 11 Sur 0 -- -- 66
2018-06-12 02:00:00 17.2 4 Sur 10 Sur 0 -- -- 63
2018-06-12 01:00:00 18.5 4 Sudeste 21 Nordeste 0 -- -- 56
2018-06-12 00:00:00 19.1 8 Nordeste 26 Norte 0 -- -- 51
2018-06-11 23:00:00 18.7 3 Sudeste 12 Norte 0 -- -- 53
2018-06-11 22:00:00 19.6 4 Sur 18 Sudoeste 0 -- -- 54
2018-06-11 21:00:00 21 8 Sudoeste 26 Oeste 0 -- -- 51
2018-06-11 20:00:00 22.8 12 Sudoeste 33 Sudoeste 0 -- -- 46
2018-06-11 19:00:00 24 17 Sudoeste 37 Sudoeste 0 -- -- 42
2018-06-11 18:00:00 25.6 14 Sudoeste 33 Oeste 0 -- -- 38
2018-06-11 17:00:00 26.4 12 Sudoeste 31 Oeste 0 -- -- 38
2018-06-11 16:00:00 25.7 17 Sudoeste 36 Sudoeste 0 -- -- 40
2018-06-11 15:00:00 25.3 14 Sudoeste 32 Oeste 0 -- -- 40
2018-06-11 14:00:00 25.1 14 Sudoeste 36 Sudoeste 0 -- -- 40
2018-06-11 13:00:00 23.8 13 Sudoeste 32 Oeste 0 -- -- 43
2018-06-11 12:00:00 22.3 12 Sudoeste 32 Sudoeste 0 -- -- 47
2018-06-11 11:00:00 21.1 11 Sudoeste 26 Oeste 0 -- -- 50
2018-06-11 10:00:00 19.9 3 Sudoeste 18 Sudoeste 0 -- -- 53
2018-06-11 09:00:00 18 2 Sudoeste 8 Sur 0 -- -- 61
2018-06-11 08:00:00 15.5 3 Nordeste 6 Nordeste 0 -- -- 70
2018-06-11 07:00:00 15.7 3 Este 9 Sudeste 0 -- -- 66
2018-06-11 06:00:00 15.3 4 Nordeste 8 Este 0 -- -- 66
2018-06-11 05:00:00 15.4 0 Calma 6 Nordeste 0 -- -- 65
2018-06-11 04:00:00 15.6 2 Nordeste 7 Nordeste 0 -- -- 64
2018-06-11 03:00:00 16.1 3 Este 5 Nordeste 0 -- -- 64
2018-06-11 02:00:00 16.5 3 Este 6 Sudoeste 0 -- -- 63
2018-06-11 01:00:00 16.8 3 Sur 7 Sudeste 0 -- -- 64
2018-06-11 00:00:00 17.4 2 Sur 8 Sur 0 -- -- 60
2018-06-10 23:00:00 18.1 0 Calma 6 Sudeste 0 -- -- 57
2018-06-10 22:00:00 19.5 0 Calma 27 Sudoeste 0 -- -- 51
2018-06-10 21:00:00 21.2 12 Sudoeste 31 Sudoeste 0 -- -- 46
2018-06-10 20:00:00 22.9 14 Sudoeste 33 Oeste 0 -- -- 44
2018-06-10 19:00:00 24.6 14 Sudoeste 39 Sudoeste 0 -- -- 41
2018-06-10 18:00:00 25.8 13 Sudoeste 32 Sudoeste 0 -- -- 39
2018-06-10 17:00:00 26.5 13 Sudoeste 32 Sudoeste 0 -- -- 37
2018-06-10 16:00:00 26.3 16 Sudoeste 36 Sudoeste 0 -- -- 37
2018-06-10 15:00:00 25 13 Sudoeste 34 Oeste 0 -- -- 39
2018-06-10 14:00:00 22.4 10 Sudoeste 35 Sudoeste 0 -- -- 46
2018-06-10 13:00:00 21.5 7 Oeste 22 Sudoeste 0 -- -- 49
2018-06-10 12:00:00 20.1 9 Sudoeste 28 Sudoeste 0 -- -- 50
2018-06-10 11:00:00 21.2 10 Sudoeste 26 Oeste 0 -- -- 50
2018-06-10 10:00:00 19.1 6 Sudoeste 27 Sudoeste 0 -- -- 53
2018-06-10 09:00:00 17.7 5 Oeste 16 Noroeste 0 -- -- 57
2018-06-10 08:00:00 15.4 3 Sudeste 10 Este 0 -- -- 62
2018-06-10 07:00:00 14.4 2 Este 9 Este 0 -- -- 63
2018-06-10 06:00:00 13.9 0 Calma 6 Nordeste 0 -- -- 65
2018-06-10 05:00:00 14.1 2 Este 5 Sur 0 -- -- 65
2018-06-10 04:00:00 14.4 0 Calma 5 Nordeste 0 -- -- 64
2018-06-10 03:00:00 14.8 3 Este 6 Sudeste 0 -- -- 62
2018-06-10 02:00:00 15.1 3 Sur 6 Este 0 -- -- 66
2018-06-10 01:00:00 15.7 0 Calma 6 Nordeste 0 -- -- 62
2018-06-10 00:00:00 16.5 4 Nordeste 6 Nordeste 0 -- -- 58
2018-06-09 23:00:00 17.5 4 Este 8 Este 0 -- -- 54
2018-06-09 22:00:00 18.9 4 Sudeste 14 Sudoeste 0 -- -- 49
2018-06-09 21:00:00 20.5 9 Sudoeste 34 Oeste 0 -- -- 46
2018-06-09 20:00:00 22.6 14 Sudoeste 33 Sudoeste 0 -- -- 40
2018-06-09 19:00:00 23.9 15 Sudoeste 32 Sudoeste 0 -- -- 36
2018-06-09 18:00:00 25 12 Sudoeste 33 Sudoeste 0 -- -- 37
2018-06-09 17:00:00 25.5 12 Oeste 30 Sudoeste 0 -- -- 37
2018-06-09 16:00:00 25.8 11 Sudoeste 32 Sudoeste 0 -- -- 38
2018-06-09 15:00:00 24.2 11 Sudoeste 25 Sudoeste 0 -- -- 40
2018-06-09 14:00:00 24.3 12 Oeste 30 Sudoeste 0 -- -- 44
2018-06-09 13:00:00 22.1 15 Sudoeste 28 Sudoeste 0 -- -- 47
2018-06-09 12:00:00 20 9 Sudoeste 28 Sudoeste 0 -- -- 52
2018-06-09 11:00:00 18.8 11 Sudoeste 28 Sudoeste 0 -- -- 56
2018-06-09 10:00:00 17.3 13 Sudoeste 23 Sudoeste 0 -- -- 61
2018-06-09 09:00:00 16.1 9 Sudoeste 16 Sudoeste 0 -- -- 61
2018-06-09 08:00:00 14.9 2 Sudoeste 10 Sudoeste 0 -- -- 70
2018-06-09 07:00:00 14.3 0 Calma 8 Este 0 -- -- 75
2018-06-09 06:00:00 13.8 0 Calma 6 Nordeste 0 -- -- 85
2018-06-09 05:00:00 13.7 6 Nordeste 10 Este 0 -- -- 87
2018-06-09 04:00:00 13.7 5 Nordeste 12 Nordeste 0 -- -- 88
2018-06-09 03:00:00 14.2 8 Nordeste 13 Este 0 -- -- 86
2018-06-09 02:00:00 16.8 4 Nordeste 14 Sur 0 -- -- 73
2018-06-09 01:00:00 18.8 10 Sudoeste 27 Sudoeste 0 -- -- 59
2018-06-09 00:00:00 19.5 9 Sudoeste 25 Sudoeste 0 -- -- 58
2018-06-08 23:00:00 19.8 10 Sudoeste 26 Sudoeste 0 -- -- 62
2018-06-08 22:00:00 20.4 8 Sudoeste 23 Sudoeste 0 -- -- 64
2018-06-08 21:00:00 21.3 10 Sudoeste 27 Sudoeste 0 -- -- 60
2018-06-08 20:00:00 22.7 14 Sudoeste 28 Sudoeste 0 -- -- 58
2018-06-08 19:00:00 24.2 12 Sudoeste 28 Sudoeste 0 -- -- 53
2018-06-08 18:00:00 24.2 15 Sudoeste 27 Sudoeste 0 -- -- 51
2018-06-08 17:00:00 23.3 11 Sudoeste 24 Sudoeste 0 -- -- 58
2018-06-08 16:00:00 24.3 12 Sudoeste 24 Sudoeste 0 -- -- 55
2018-06-08 15:00:00 25.3 6 Norte 18 Sur 0 -- -- 52
2018-06-08 14:00:00 23.4 5 Sudoeste 18 Sudoeste 0 -- -- 58
2018-06-08 13:00:00 23 9 Sur 19 Sur 0 -- -- 53
2018-06-08 12:00:00 21.6 8 Nordeste 17 Sur 0 -- -- 58
2018-06-08 11:00:00 21.6 5 Sudeste 15 Sur 0 -- -- 61
2018-06-08 10:00:00 19.5 2 Sudoeste 9 Oeste 0 -- -- 67
2018-06-08 09:00:00 17.2 0 Calma 5 Sudoeste 0 -- -- 72
2018-06-08 08:00:00 16.1 0 Calma 9 Este 0 -- -- 77
2018-06-08 07:00:00 16.4 4 Nordeste 8 Nordeste 0 -- -- 76
2018-06-08 06:00:00 16.5 3 Nordeste 9 Nordeste 0 -- -- 77
2018-06-08 05:00:00 17.1 0 Calma 3 Nordeste 0 -- -- 75
2018-06-08 04:00:00 17.3 0 Calma 5 Nordeste 0 -- -- 74
2018-06-08 03:00:00 17.9 0 Calma 5 Nordeste 0 -- -- 73
2018-06-08 02:00:00 18.6 2 Nordeste 6 Nordeste 0 -- -- 70
2018-06-08 01:00:00 19.7 0 Calma 5 Este 0 -- -- 67
2018-06-08 00:00:00 20.5 4 Nordeste 5 Nordeste 0 -- -- 64
2018-06-07 23:00:00 20.2 4 Nordeste 8 Este 0 -- -- 65
2018-06-07 22:00:00 20.8 4 Este 6 Este 0 -- -- 62
2018-06-07 21:00:00 22 4 Nordeste 13 Sudoeste 0 -- -- 58
2018-06-07 20:00:00 22.8 6 Sur 18 Sur 0 -- -- 56
2018-06-07 19:00:00 23.8 12 Sudoeste 23 Sudoeste 0 -- -- 53
2018-06-07 18:00:00 24.5 11 Sudoeste 25 Oeste 0 -- -- 52
2018-06-07 17:00:00 25.4 15 Sudoeste 28 Sudoeste 0 -- -- 49
2018-06-07 16:00:00 25.7 10 Sudoeste 21 Sudoeste 0 -- -- 49
2018-06-07 15:00:00 25 8 Sudoeste 24 Oeste 0 -- -- 52
2018-06-07 14:00:00 24.3 8 Sudoeste 21 Sudoeste 0 -- -- 52
2018-06-07 13:00:00 23.1 9 Sudoeste 19 Sudoeste 0 -- -- 47
2018-06-07 12:00:00 22.5 8 Sudoeste 18 Sudoeste 0 -- -- 50
2018-06-07 11:00:00 21.6 5 Este 14 Nordeste 0 -- -- 55
2018-06-07 10:00:00 20.8 3 Noroeste 9 Nordeste 0 -- -- 57
2018-06-07 09:00:00 19.2 5 Nordeste 15 Nordeste 0 -- -- 59
2018-06-07 08:00:00 15.9 4 Nordeste 7 Nordeste 0 -- -- 70
2018-06-07 07:00:00 15 3 Nordeste 6 Nordeste 0 -- -- 70
2018-06-07 06:00:00 15.4 4 Este 8 Sudeste 0 -- -- 68
2018-06-07 05:00:00 15.2 0 Calma 9 Sudeste 0 -- -- 69
2018-06-07 04:00:00 15.3 2 Este 10 Sur 0 -- -- 70
2018-06-07 03:00:00 15.8 3 Este 9 Sur 0 -- -- 69
2018-06-07 02:00:00 15.3 3 Sur 6 Sudeste 0 -- -- 71
2018-06-07 01:00:00 15.5 0 Calma 10 Sur 0 -- -- 72
2018-06-07 00:00:00 15.8 2 Este 9 Sudoeste 0 -- -- 69
2018-06-06 23:00:00 16.3 2 Sudeste 18 Sur 0 -- -- 68
2018-06-06 22:00:00 17.3 7 Sur 28 Noroeste 0 -- -- 64
2018-06-06 21:00:00 18.8 10 Sudoeste 35 Sudoeste 0 -- -- 58
2018-06-06 20:00:00 19.8 19 Sudoeste 42 Sudoeste 0 -- -- 56
2018-06-06 19:00:00 20.9 18 Sudoeste 36 Sudoeste 0 -- -- 53
2018-06-06 18:00:00 20.6 21 Sudoeste 30 Sudoeste 0 -- -- 54
2018-06-06 17:00:00 22.7 13 Sudoeste 39 Sudoeste 0 -- -- 48
2018-06-06 16:00:00 23.5 18 Sudoeste 36 Sur 0 -- -- 46
2018-06-06 15:00:00 23.3 11 Sudoeste 30 Sudoeste 0 -- -- 45
2018-06-06 14:00:00 23.3 10 Sudoeste 26 Sudoeste 0 -- -- 45
2018-06-06 13:00:00 21.9 13 Sudoeste 26 Sudoeste 0 -- -- 47
2018-06-06 12:00:00 21.4 8 Oeste 29 Sudoeste 0 -- -- 50
2018-06-06 11:00:00 20.3 10 Sudoeste 20 Sudoeste 0 -- -- 53
2018-06-06 10:00:00 18.3 7 Sudoeste 21 Sudoeste 0 -- -- 57
2018-06-06 09:00:00 16.1 4 Sudoeste 15 Oeste 0 -- -- 69
2018-06-06 08:00:00 14.5 2 Sudoeste 10 Sur 0 -- -- 72
2018-06-06 07:00:00 13.9 4 Sur 11 Sudeste 0 -- -- 72
2018-06-06 06:00:00 13.6 0 Calma 5 Sudoeste 0 -- -- 72
2018-06-06 05:00:00 14.3 3 Sudoeste 23 Sudoeste 0 -- -- 69
2018-06-06 04:00:00 15 12 Sudoeste 27 Sudoeste 0 -- -- 66
2018-06-06 03:00:00 14.8 14 Sudoeste 30 Sudoeste 0 -- -- 68
2018-06-06 02:00:00 15 16 Sudoeste 26 Oeste 0 -- -- 69
2018-06-06 01:00:00 14.9 12 Sudoeste 25 Sudoeste 0 -- -- 72
2018-06-06 00:00:00 15.3 10 Sudoeste 17 Sudoeste 0 -- -- 70
2018-06-05 23:00:00 15.9 4 Oeste 10 Sudoeste 0 -- -- 67
2018-06-05 22:00:00 17.2 3 Sur 18 Oeste 0 -- -- 61
2018-06-05 21:00:00 18.3 9 Sudoeste 25 Sudoeste 0 -- -- 56
2018-06-05 20:00:00 18.7 10 Sudoeste 28 Sudoeste 0 -- -- 54
2018-06-05 19:00:00 20 13 Sudoeste 34 Oeste 0 -- -- 49
2018-06-05 18:00:00 21.4 14 Sudoeste 32 Sudoeste 0 -- -- 45
2018-06-05 17:00:00 24.1 14 Sudoeste 33 Sudoeste 0 -- -- 39
2018-06-05 16:00:00 24.4 15 Sudoeste 31 Sudoeste 0 -- -- 39
2018-06-05 15:00:00 24.2 9 Sudoeste 28 Sudoeste 0 -- -- 41
2018-06-05 14:00:00 23.1 13 Oeste 30 Sudoeste 0 -- -- 43
2018-06-05 13:00:00 22.1 16 Sudoeste 35 Sudoeste 0 -- -- 45
2018-06-05 12:00:00 21.1 15 Sudoeste 31 Oeste 0 -- -- 46
2018-06-05 11:00:00 20 5 Norte 14 Nordeste 0 -- -- 56
2018-06-05 10:00:00 17.7 2 Sudoeste 11 Nordeste 0 -- -- 63
2018-06-05 09:00:00 16.6 4 Sur 12 Sur 0 -- -- 61
2018-06-05 08:00:00 16.4 4 Este 12 Nordeste 0 -- -- 59
2018-06-05 07:00:00 16.7 3 Sudoeste 19 Sudoeste 0 -- -- 62
2018-06-05 06:00:00 17 6 Sudoeste 17 Sudoeste 0 -- -- 58
2018-06-05 05:00:00 17.2 5 Sudoeste 16 Sudoeste 0 -- -- 57
2018-06-05 04:00:00 17.1 4 Sudoeste 15 Este 0 -- -- 59
2018-06-05 03:00:00 17.2 6 Sudoeste 17 Sudoeste 0 -- -- 60
2018-06-05 02:00:00 17.4 6 Sudeste 14 Sudoeste 0 -- -- 60
2018-06-05 01:00:00 18 3 Oeste 24 Norte 0 -- -- 58
2018-06-05 00:00:00 18.6 8 Sudoeste 32 Norte 0 -- -- 54
2018-06-04 23:00:00 19.1 4 Sur 27 Norte 0 -- -- 55
2018-06-04 22:00:00 19.2 4 Sur 16 Sur 0 -- -- 51
2018-06-04 21:00:00 20.6 10 Sudoeste 24 Sudoeste 0 -- -- 51
2018-06-04 20:00:00 21.9 7 Oeste 31 Sudoeste 0 -- -- 46
2018-06-04 19:00:00 23 12 Sudoeste 37 Sudoeste 0 -- -- 43
2018-06-04 18:00:00 25 14 Sudoeste 33 Sudoeste 0 -- -- 37
2018-06-04 17:00:00 27.8 9 Oeste 27 Noroeste 0 -- -- 33
2018-06-04 16:00:00 27.8 9 Oeste 31 Sudoeste 0 -- -- 31
2018-06-04 15:00:00 25.4 7 Norte 26 Sudoeste 0 -- -- 35
2018-06-04 14:00:00 23.5 12 Nordeste 23 Nordeste 0 -- -- 48
2018-06-04 13:00:00 22.1 11 Nordeste 23 Nordeste 0 -- -- 54
2018-06-04 12:00:00 20.9 9 Nordeste 23 Nordeste 0 -- -- 58
2018-06-04 11:00:00 19.9 10 Nordeste 20 Nordeste 0 -- -- 62
2018-06-04 10:00:00 19.3 8 Nordeste 12 Nordeste 0 -- -- 63
2018-06-04 09:00:00 18.2 5 Nordeste 8 Nordeste 0 -- -- 64
2018-06-04 08:00:00 15.4 0 Calma 6 Sur 0 -- -- 74
2018-06-04 07:00:00 14.8 0 Calma 7 Sur 0 -- -- 73
2018-06-04 06:00:00 15 0 Calma 6 Nordeste 0 -- -- 69
2018-06-04 05:00:00 15.5 2 Sudeste 7 Este 0 -- -- 65
2018-06-04 04:00:00 15.9 0 Calma 8 Nordeste 0 -- -- 60
2018-06-04 03:00:00 16.1 0 Calma 10 Este 0 -- -- 58
2018-06-04 02:00:00 16.8 5 Este 8 Nordeste 0 -- -- 55
2018-06-04 01:00:00 17 0 Calma 8 Este 0 -- -- 56
2018-06-04 00:00:00 18.3 4 Este 10 Sudoeste 0 -- -- 51
2018-06-03 23:00:00 19.3 5 Sudoeste 11 Sudoeste 0 -- -- 49
2018-06-03 22:00:00 20.8 3 Sur 22 Sudoeste 0 -- -- 43
2018-06-03 21:00:00 22.8 10 Sudoeste 35 Sudoeste 0 -- -- 40
2018-06-03 20:00:00 24.7 14 Sudoeste 30 Sudoeste 0 -- -- 38
2018-06-03 19:00:00 25.9 14 Sudoeste 27 Sudoeste 0 -- -- 37
2018-06-03 18:00:00 25.1 11 Nordeste 21 Nordeste 0 -- -- 42
2018-06-03 17:00:00 26.5 6 Sudeste 25 Nordeste 0 -- -- 37
2018-06-03 16:00:00 25.2 14 Nordeste 27 Nordeste 0 -- -- 42
2018-06-03 15:00:00 25.9 6 Sur 19 Sudeste 0 -- -- 42
2018-06-03 14:00:00 25.2 7 Sudeste 18 Nordeste 0 -- -- 44
2018-06-03 13:00:00 25.3 6 Oeste 21 Sudoeste 0 -- -- 41
2018-06-03 12:00:00 22.5 7 Sudoeste 17 Este 0 -- -- 54
2018-06-03 11:00:00 22.1 5 Este 12 Sur 0 -- -- 60
2018-06-03 10:00:00 20.1 4 Sudoeste 7 Sur 0 -- -- 62
2018-06-03 09:00:00 17.9 0 Calma 5 Oeste 0 -- -- 68
2018-06-03 08:00:00 15.2 0 Calma 5 Sur 0 -- -- 81
2018-06-03 07:00:00 14.4 2 Sur 6 Sur 0 -- -- 79
2018-06-03 06:00:00 14.2 3 Sur 8 Sur 0 -- -- 76
2018-06-03 05:00:00 14.3 3 Sur 18 Sudoeste 0 -- -- 75
2018-06-03 04:00:00 14.9 8 Sudoeste 22 Oeste 0 -- -- 74
2018-06-03 03:00:00 14.6 9 Sudoeste 28 Noroeste 0 -- -- 76
2018-06-03 02:00:00 13.2 6 Sudoeste 13 Sur 0 -- -- 81
2018-06-03 01:00:00 12.9 3 Sudeste 6 Sudoeste 0 -- -- 84
2018-06-03 00:00:00 12.7 0 Calma 8 Sur 0 -- -- 88
2018-06-02 23:00:00 12.6 0 Calma 8 Sudoeste 0 -- -- 88
2018-06-02 22:00:00 12.9 3 Nordeste 11 Noroeste 0 -- -- 86
2018-06-02 21:00:00 14.1 4 Sudoeste 12 Norte 1.2 -- -- 88
2018-06-02 20:00:00 15.1 8 Norte 33 Nordeste 1.2 -- -- 78
2018-06-02 19:00:00 16.8 16 Nordeste 36 Nordeste 0 -- -- 54
2018-06-02 18:00:00 18.4 20 Nordeste 33 Nordeste 0 -- -- 53
2018-06-02 17:00:00 24.2 16 Sudoeste 32 Sudoeste 0 -- -- 37
2018-06-02 16:00:00 23.1 16 Sudoeste 36 Sudoeste 0 -- -- 37
2018-06-02 15:00:00 22.1 19 Sudoeste 35 Sudoeste 0 -- -- 42
2018-06-02 14:00:00 22 15 Sudoeste 39 Sudoeste 0 -- -- 41
2018-06-02 13:00:00 20.9 17 Sudoeste 34 Sudoeste 0 -- -- 48
2018-06-02 12:00:00 20.1 19 Sudoeste 31 Sudoeste 0 -- -- 55
2018-06-02 11:00:00 19.1 7 Sur 17 Sur 0 -- -- 65
2018-06-02 10:00:00 17.5 3 Sudoeste 11 Sudoeste 0 -- -- 74
2018-06-02 09:00:00 15.2 2 Oeste 4 Sudoeste 0 -- -- 71
2018-06-02 08:00:00 13 0 Calma 4 Nordeste 0 -- -- 85
2018-06-02 07:00:00 12.3 0 Calma 5 Sur 0 -- -- 89
2018-06-02 06:00:00 12.8 2 Sur 4 Sur 0 -- -- 91
2018-06-02 05:00:00 13.3 0 Calma 8 Nordeste 0 -- -- 93
2018-06-02 04:00:00 14 0 Calma 3 Nordeste 0 -- -- 92
2018-06-02 03:00:00 14.3 0 Calma 3 Este 0 -- -- 91
2018-06-02 02:00:00 14.5 2 Nordeste 4 Este 0 -- -- 89
2018-06-02 01:00:00 15.3 2 Norte 6 Sudoeste 0 -- -- 87
2018-06-02 00:00:00 15.9 0 Calma 6 Sudoeste 0 -- -- 84
2018-06-01 23:00:00 16.7 0 Calma 4 Sudoeste 0 -- -- 82
2018-06-01 22:00:00 17.6 2 Sudoeste 11 Nordeste 0 -- -- 79
2018-06-01 21:00:00 19.2 7 Nordeste 14 Sudoeste 0 -- -- 71
2018-06-01 20:00:00 21.6 5 Sur 15 Sudoeste 0 -- -- 58
2018-06-01 19:00:00 23.3 7 Sudoeste 18 Sudoeste 0 -- -- 52
2018-06-01 18:00:00 23.3 7 Sur 19 Sur 0 -- -- 50
2018-06-01 17:00:00 24.5 9 Sur 22 Oeste 0 -- -- 49
2018-06-01 16:00:00 23.7 7 Sudoeste 23 Sudoeste 0 -- -- 53
2018-06-01 15:00:00 23.9 7 Oeste 17 Sudoeste 0 -- -- 48
2018-06-01 14:00:00 24 8 Sudoeste 19 Sudoeste 0 -- -- 47
2018-06-01 13:00:00 23 8 Sudoeste 17 Sudoeste 0 -- -- 54
2018-06-01 12:00:00 22.1 6 Sudoeste 16 Sur 0 -- -- 57
2018-06-01 11:00:00 21.6 7 Sur 13 Sudoeste 0 -- -- 61
2018-06-01 10:00:00 20.3 3 Sudoeste 5 Sudoeste 0 -- -- 59
2018-06-01 09:00:00 18.6 2 Sudoeste 5 Nordeste 0 -- -- 64
2018-06-01 08:00:00 16.6 0 Calma 9 Este 0 -- -- 67
2018-06-01 07:00:00 16.9 6 Este 9 Este 0 -- -- 64
2018-06-01 06:00:00 16.4 0 Calma 5 Nordeste 0 -- -- 66
2018-06-01 05:00:00 17 4 Nordeste 8 Nordeste 0 -- -- 64
2018-06-01 04:00:00 17 0 Calma 5 Este 0 -- -- 65
2018-06-01 03:00:00 17.4 4 Nordeste 7 Este 0 -- -- 62
2018-06-01 02:00:00 17.3 0 Calma 6 Nordeste 0 -- -- 65
2018-06-01 01:00:00 17.1 0 Calma 2 Este 0 -- -- 69
2018-06-01 00:00:00 17.8 2 Este 7 Nordeste 0 -- -- 68
2018-05-31 23:00:00 18.4 8 Nordeste 10 Nordeste 0 -- -- 66
2018-05-31 22:00:00 19.7 4 Este 6 Este 0 -- -- 62
2018-05-31 21:00:00 21.5 0 Calma 9 Sudoeste 0 -- -- 55
2018-05-31 20:00:00 22.6 6 Sudoeste 14 Sudoeste 0 -- -- 51
2018-05-31 19:00:00 22.7 6 Sudoeste 19 Sudoeste 0 -- -- 49
2018-05-31 18:00:00 23.3 7 Sudoeste 19 Sudoeste 0 -- -- 49
2018-05-31 17:00:00 23.9 8 Sur 22 Sudoeste 0 -- -- 48
2018-05-31 16:00:00 23.8 8 Sur 19 Sur 0 -- -- 49
2018-05-31 15:00:00 24 11 Sudoeste 23 Sudoeste 0 -- -- 45
2018-05-31 14:00:00 23.6 8 Sudoeste 18 Sudoeste 0 -- -- 47
2018-05-31 13:00:00 22.5 6 Sudoeste 17 Sur 0 -- -- 49
2018-05-31 12:00:00 21.3 7 Sur 18 Sur 0 -- -- 52
2018-05-31 11:00:00 21 6 Sudoeste 17 Sudoeste 0 -- -- 53
2018-05-31 10:00:00 20.2 6 Nordeste 17 Nordeste 0 -- -- 54
2018-05-31 09:00:00 18.4 5 Nordeste 10 Este 0 -- -- 57
2018-05-31 08:00:00 14.8 3 Nordeste 5 Nordeste 0 -- -- 71
2018-05-31 07:00:00 14.6 3 Nordeste 9 Nordeste 0 -- -- 68
2018-05-31 06:00:00 14.9 5 Nordeste 8 Este 0 -- -- 67
2018-05-31 05:00:00 15.1 0 Calma 13 Nordeste 0 -- -- 66
2018-05-31 04:00:00 15.9 8 Nordeste 15 Este 0 -- -- 63
2018-05-31 03:00:00 15.4 3 Nordeste 9 Norte 0 -- -- 66
2018-05-31 02:00:00 15.6 3 Este 6 Nordeste 0 -- -- 64
2018-05-31 01:00:00 16 0 Calma 8 Nordeste 0 -- -- 64
2018-05-31 00:00:00 16.2 5 Nordeste 10 Nordeste 0 -- -- 62
2018-05-30 23:00:00 16.8 4 Nordeste 7 Nordeste 0 -- -- 61
2018-05-30 22:00:00 18.2 4 Sudeste 7 Sudoeste 0 -- -- 59
2018-05-30 21:00:00 19.7 8 Sudoeste 31 Sudoeste 0 -- -- 57
2018-05-30 20:00:00 21.1 14 Sudoeste 34 Sudoeste 0 -- -- 51
2018-05-30 19:00:00 22.5 16 Sudoeste 33 Sudoeste 0 -- -- 47
2018-05-30 18:00:00 23.9 16 Sudoeste 36 Sudoeste 0 -- -- 43
2018-05-30 17:00:00 25.3 17 Sudoeste 32 Sudoeste 0 -- -- 39
2018-05-30 16:00:00 22.7 15 Sudoeste 35 Sudoeste 0 -- -- 47
2018-05-30 15:00:00 21.2 6 Sudoeste 18 Sur 0 -- -- 55
2018-05-30 14:00:00 18.4 4 Este 16 Nordeste 0 -- -- 71
2018-05-30 13:00:00 18 8 Sur 19 Sur 0 -- -- 73
2018-05-30 12:00:00 18.9 7 Sudoeste 15 Sur 0 -- -- 65
2018-05-30 11:00:00 18.6 5 Sudeste 14 Sudeste 0 -- -- 66
2018-05-30 10:00:00 18.6 4 Este 8 Nordeste 0 -- -- 60
2018-05-30 09:00:00 16.1 2 Sudoeste 4 Sur 0 -- -- 67
2018-05-30 08:00:00 13.8 0 Calma 13 Sur 0 -- -- 76
2018-05-30 07:00:00 12.6 0 Calma 3 Nordeste 0 -- -- 77
2018-05-30 06:00:00 12.5 0 Calma 5 Sudoeste 0 -- -- 77
2018-05-30 05:00:00 13.7 3 Sur 10 Sudeste 0 -- -- 71
2018-05-30 04:00:00 13.9 4 Sur 22 Sudoeste 0 -- -- 70
2018-05-30 03:00:00 13.7 8 Sudoeste 13 Sudoeste 0 -- -- 73
2018-05-30 02:00:00 13.7 3 Sudoeste 7 Oeste 0 -- -- 73
2018-05-30 01:00:00 14.3 4 Sudoeste 10 Sudoeste 0 -- -- 71
2018-05-30 00:00:00 14.5 3 Sudoeste 22 Sudoeste 0 -- -- 70
2018-05-29 23:00:00 15.3 11 Sudoeste 26 Sudoeste 0 -- -- 67
2018-05-29 22:00:00 16.3 8 Sudoeste 22 Oeste 0 -- -- 63
2018-05-29 21:00:00 17.3 10 Sudoeste 23 Oeste 0 -- -- 59
2018-05-29 20:00:00 18.9 12 Sudoeste 25 Sudoeste 0 -- -- 54
2018-05-29 19:00:00 18.6 10 Sudoeste 29 Sudoeste 0 -- -- 59
2018-05-29 18:00:00 19.5 17 Sudoeste 34 Sudoeste 0 -- -- 55
2018-05-29 17:00:00 22.3 19 Sudoeste 48 Sudoeste 0 -- -- 46
2018-05-29 16:00:00 22.8 18 Sudoeste 44 Sudoeste 0 -- -- 41
2018-05-29 15:00:00 20.8 21 Sudoeste 37 Sudoeste 0 -- -- 48
2018-05-29 14:00:00 22.6 14 Sudoeste 30 Sudoeste 0 -- -- 45
2018-05-29 13:00:00 20.3 8 Oeste 27 Sudoeste 0 -- -- 53
2018-05-29 12:00:00 20.6 14 Sudoeste 29 Sudoeste 0 -- -- 51
2018-05-29 11:00:00 20.3 12 Sudoeste 25 Sudoeste 0 -- -- 53
2018-05-29 10:00:00 18.2 10 Sudoeste 32 Sudoeste 0 -- -- 61
2018-05-29 09:00:00 16.7 12 Sudoeste 25 Oeste 0 -- -- 64
2018-05-29 08:00:00 13.6 7 Sudoeste 19 Sudoeste 0 -- -- 75
2018-05-29 07:00:00 12.7 2 Sudeste 4 Sur 0 -- -- 81
2018-05-29 06:00:00 13.1 0 Calma 10 Este 0 -- -- 80
2018-05-29 05:00:00 13.1 0 Calma 9 Nordeste 0 -- -- 81
2018-05-29 04:00:00 13.2 2 Sudoeste 7 Sur 0 -- -- 82
2018-05-29 03:00:00 13.7 3 Oeste 6 Sudoeste 0 -- -- 83
2018-05-29 02:00:00 14.3 0 Calma 3 Este 0 -- -- 77
2018-05-29 01:00:00 15.2 0 Calma 11 Nordeste 0 -- -- 74
2018-05-29 00:00:00 16.4 10 Nordeste 19 Nordeste 0 -- -- 68
2018-05-28 23:00:00 16.8 2 Sudeste 5 Sur 0 -- -- 66
2018-05-28 22:00:00 18.3 4 Sudoeste 31 Oeste 0 -- -- 60
2018-05-28 21:00:00 19.8 14 Sudoeste 28 Sudoeste 0 -- -- 57
2018-05-28 20:00:00 21.3 16 Sudoeste 31 Sudoeste 0 -- -- 53
2018-05-28 19:00:00 22.7 18 Sudoeste 33 Sudoeste 0 -- -- 51
2018-05-28 18:00:00 23.3 23 Sudoeste 36 Sudoeste 0 -- -- 49
2018-05-28 17:00:00 25.2 17 Sudoeste 35 Sudoeste 0 -- -- 47
2018-05-28 16:00:00 24.8 16 Sudoeste 40 Sudoeste 0 -- -- 48
2018-05-28 15:00:00 23.9 20 Sudoeste 37 Sur 0 -- -- 51
2018-05-28 14:00:00 22.6 18 Sudoeste 33 Oeste 0 -- -- 56
2018-05-28 13:00:00 19.5 15 Sudoeste 26 Sudoeste 0 -- -- 66
2018-05-28 12:00:00 19.4 14 Sudoeste 24 Sudoeste 0 -- -- 65
2018-05-28 11:00:00 20 5 Oeste 21 Sudoeste 0 -- -- 60
2018-05-28 10:00:00 18.5 7 Sudoeste 18 Sudoeste 0 -- -- 64
2018-05-28 09:00:00 16.5 3 Oeste 9 Sudoeste 0 -- -- 71
2018-05-28 08:00:00 14.5 4 Sur 10 Sur 0 -- -- 75
2018-05-28 07:00:00 13.4 4 Este 8 Nordeste 0 -- -- 74
2018-05-28 06:00:00 13.9 0 Calma 9 Este 0 -- -- 70
2018-05-28 05:00:00 14.2 2 Nordeste 7 Sudoeste 0 -- -- 65
2018-05-28 04:00:00 14.2 2 Nordeste 8 Este 0 -- -- 64
2018-05-28 03:00:00 14.5 3 Sudeste 6 Sur 0 -- -- 62
2018-05-28 02:00:00 15.3 2 Este 8 Nordeste 0 -- -- 62
2018-05-28 01:00:00 16 4 Sur 23 Sudoeste 0 -- -- 61
2018-05-28 00:00:00 16.9 12 Sudoeste 30 Oeste 0 -- -- 61
2018-05-27 23:00:00 17.6 13 Sudoeste 37 Sudoeste 0 -- -- 60
2018-05-27 22:00:00 18.5 16 Sudoeste 34 Sudoeste 0 -- -- 53
2018-05-27 21:00:00 20.1 16 Sudoeste 34 Sudoeste 0 -- -- 56
2018-05-27 20:00:00 22.1 15 Sudoeste 32 Sudoeste 0 -- -- 50
2018-05-27 19:00:00 23.2 20 Sudoeste 32 Sudoeste 0 -- -- 50
2018-05-27 18:00:00 24.5 15 Sudoeste 31 Sudoeste 0 -- -- 45
2018-05-27 17:00:00 23.3 16 Sudoeste 33 Sudoeste 0 -- -- 47
2018-05-27 16:00:00 24.5 17 Sudoeste 32 Sudoeste 0 -- -- 46
2018-05-27 15:00:00 23.7 19 Sudoeste 32 Sudoeste 0 -- -- 50
2018-05-27 14:00:00 22.2 17 Sudoeste 30 Sudoeste 0 -- -- 55
2018-05-27 13:00:00 23 18 Sudoeste 30 Sudoeste 0 -- -- 54
2018-05-27 12:00:00 21.8 8 Sudoeste 19 Sudoeste 0 -- -- 59
2018-05-27 11:00:00 20.8 7 Sudoeste 14 Sudoeste 0 -- -- 67
2018-05-27 10:00:00 18.9 2 Sur 7 Sur 0 -- -- 70
2018-05-27 09:00:00 17.1 4 Sudoeste 11 Noroeste 0 -- -- 77
2018-05-27 08:00:00 15.9 3 Nordeste 6 Nordeste 0 -- -- 79
2018-05-27 07:00:00 16.3 2 Sudeste 4 Sudeste 0 -- -- 76
2018-05-27 06:00:00 16.7 0 Calma 5 Nordeste 0 -- -- 75
2018-05-27 05:00:00 17 4 Nordeste 6 Nordeste 0 -- -- 73
2018-05-27 04:00:00 16.9 0 Calma 6 Noroeste 0 -- -- 73
2018-05-27 03:00:00 17.6 4 Nordeste 6 Este 0 -- -- 70
2018-05-27 02:00:00 17 5 Nordeste 8 Nordeste 0 -- -- 73
2018-05-27 01:00:00 16.7 0 Calma 5 Nordeste 0 -- -- 75
2018-05-27 00:00:00 17.4 2 Noroeste 8 Nordeste 0 -- -- 71
2018-05-26 23:00:00 17.5 3 Nordeste 8 Nordeste 0 -- -- 71
2018-05-26 22:00:00 18 0 Calma 6 Nordeste 0 -- -- 69
2018-05-26 21:00:00 19.8 3 Sur 17 Oeste 0 -- -- 62
2018-05-26 20:00:00 21.1 7 Sur 16 Sudoeste 0 -- -- 59
2018-05-26 19:00:00 21.4 7 Sudoeste 18 Sudoeste 0 -- -- 58
2018-05-26 18:00:00 22.8 10 Sudoeste 24 Sudoeste 0 -- -- 53
2018-05-26 17:00:00 24.3 10 Sudoeste 23 Oeste 0 -- -- 50
2018-05-26 16:00:00 23.8 9 Sudoeste 23 Sudoeste 0 -- -- 48
2018-05-26 15:00:00 22.7 11 Sudoeste 23 Sudoeste 0 -- -- 54
2018-05-26 14:00:00 22.8 10 Sudoeste 24 Sudoeste 0 -- -- 47
2018-05-26 13:00:00 22.3 10 Sudoeste 24 Oeste 0 -- -- 45
2018-05-26 12:00:00 20.9 11 Sudoeste 22 Sudoeste 0 -- -- 50
2018-05-26 11:00:00 19.3 5 Nordeste 13 Nordeste 0 -- -- 59
2018-05-26 10:00:00 17.8 9 Nordeste 16 Nordeste 0 -- -- 60
2018-05-26 09:00:00 16.2 3 Sudoeste 7 Sudoeste 0 -- -- 65
2018-05-26 08:00:00 13.9 3 Nordeste 6 Sudeste 0 -- -- 73
2018-05-26 07:00:00 13.5 0 Calma 7 Norte 0 -- -- 71
2018-05-26 06:00:00 13.3 3 Nordeste 5 Nordeste 0 -- -- 69
2018-05-26 05:00:00 13.1 0 Calma 6 Nordeste 0 -- -- 70
2018-05-26 04:00:00 13.6 0 Calma 7 Nordeste 0 -- -- 68
2018-05-26 03:00:00 14.3 5 Nordeste 8 Este 0 -- -- 66
2018-05-26 02:00:00 14.5 0 Calma 6 Este 0 -- -- 65
2018-05-26 01:00:00 14.4 2 Sur 8 Sudoeste 0 -- -- 65
2018-05-26 00:00:00 14.5 0 Calma 8 Sudoeste 0 -- -- 66
2018-05-25 23:00:00 15.6 3 Sudoeste 9 Sudoeste 0 -- -- 63
2018-05-25 22:00:00 17.2 5 Sudoeste 13 Sudoeste 0 -- -- 56
2018-05-25 21:00:00 19.2 8 Sudoeste 22 Sudoeste 0 -- -- 47
2018-05-25 20:00:00 20 13 Sudoeste 28 Sudoeste 0 -- -- 49
2018-05-25 19:00:00 21.3 15 Sudoeste 33 Sudoeste 0 -- -- 48
2018-05-25 18:00:00 21.4 19 Sudoeste 30 Sudoeste 0 -- -- 50
2018-05-25 17:00:00 21.7 15 Sudoeste 29 Sudoeste 0 -- -- 51
2018-05-25 16:00:00 21.8 16 Sudoeste 29 Sudoeste 0 -- -- 58
2018-05-25 15:00:00 20.8 13 Sudoeste 28 Sudoeste 0 -- -- 56
2018-05-25 14:00:00 20.5 9 Sudoeste 23 Sudoeste 0 -- -- 52
2018-05-25 13:00:00 18.4 12 Sudoeste 25 Sudoeste 0 -- -- 60
2018-05-25 12:00:00 17 11 Sudoeste 27 Sudoeste 0 -- -- 68
2018-05-25 11:00:00 18.1 10 Sudoeste 22 Sudoeste 0 -- -- 62
2018-05-25 10:00:00 17.7 12 Sudoeste 23 Sudoeste 0 -- -- 62
2018-05-25 09:00:00 15.9 9 Sudoeste 17 Sudoeste 0 -- -- 63
2018-05-25 08:00:00 14.3 6 Sudoeste 17 Sudoeste 0 -- -- 67
2018-05-25 07:00:00 14.2 7 Sudoeste 20 Sudoeste 0 -- -- 65
2018-05-25 06:00:00 13.7 6 Sudoeste 12 Sudoeste 0 -- -- 68
2018-05-25 05:00:00 15 3 Sudoeste 26 Noroeste 0 -- -- 69
2018-05-25 04:00:00 15.8 10 Sudoeste 22 Sudoeste 0 -- -- 54
2018-05-25 03:00:00 15.8 7 Sudoeste 19 Sudoeste 0 -- -- 56
2018-05-25 02:00:00 15.9 0 Calma 8 Sudoeste 0 -- -- 66
2018-05-25 01:00:00 16.4 3 Sudeste 7 Nordeste 0 -- -- 74
2018-05-25 00:00:00 16.9 2 Sur 5 Sudoeste 0 -- -- 73
2018-05-24 23:00:00 17.6 0 Calma 13 Este 0 -- -- 71
2018-05-24 22:00:00 18.3 0 Calma 10 Nordeste 0 -- -- 68
2018-05-24 21:00:00 20.2 3 Nordeste 15 Sudoeste 0 -- -- 62
2018-05-24 20:00:00 21 3 Sudoeste 17 Sudoeste 0 -- -- 59
2018-05-24 19:00:00 21.6 11 Sudoeste 23 Sudoeste 0 -- -- 56
2018-05-24 18:00:00 22.8 6 Sudoeste 21 Sudoeste 0 -- -- 54
2018-05-24 17:00:00 22 5 Sudoeste 26 Sudoeste 0 -- -- 57
2018-05-24 16:00:00 21.9 8 Sudoeste 18 Sudoeste 0 -- -- 52
2018-05-24 15:00:00 21.5 10 Sudoeste 21 Sudoeste 0 -- -- 53
2018-05-24 14:00:00 22.1 9 Sudoeste 20 Sudoeste 0 -- -- 52
2018-05-24 13:00:00 21.3 8 Sudoeste 20 Sudoeste 0 -- -- 54
2018-05-24 12:00:00 21.7 9 Sudoeste 19 Sudoeste 0 -- -- 49
2018-05-24 11:00:00 21.2 5 Sudoeste 19 Sudoeste 0 -- -- 52
2018-05-24 10:00:00 20 7 Sudoeste 14 Sudoeste 0 -- -- 54
2018-05-24 09:00:00 17.9 2 Sudoeste 5 Sur 0 -- -- 58
2018-05-24 08:00:00 15.5 2 Sur 4 Sur 0 -- -- 65
2018-05-24 07:00:00 15.2 0 Calma 4 Sur 0 -- -- 64
2018-05-24 06:00:00 15.6 0 Calma 3 Este 0 -- -- 62
2018-05-24 05:00:00 15.8 2 Nordeste 6 Nordeste 0 -- -- 62
2018-05-24 04:00:00 15.6 0 Calma 3 Este 0 -- -- 61
2018-05-24 03:00:00 16.2 3 Nordeste 6 Nordeste 0 -- -- 58
2018-05-24 02:00:00 17.6 0 Calma 13 Este 0 -- -- 52
2018-05-24 01:00:00 17.5 4 Nordeste 13 Nordeste 0 -- -- 50
2018-05-24 00:00:00 17.1 0 Calma 7 Este 0 -- -- 49
2018-05-23 23:00:00 17.1 2 Nordeste 4 Este 0 -- -- 54
2018-05-23 22:00:00 18 0 Calma 3 Nordeste 0 -- -- 57
2018-05-23 21:00:00 19.5 0 Calma 3 Sur 0 -- -- 53
2018-05-23 20:00:00 20.3 3 Sudoeste 7 Oeste 0 -- -- 48
2018-05-23 19:00:00 20.2 0 Calma 9 Nordeste 0 -- -- 49
2018-05-23 18:00:00 20.8 5 Nordeste 17 Nordeste 0 -- -- 47
2018-05-23 17:00:00 21.5 11 Nordeste 21 Nordeste 0 -- -- 48
2018-05-23 16:00:00 21.9 10 Nordeste 26 Nordeste 0 -- -- 45
2018-05-23 15:00:00 22.6 9 Nordeste 22 Este 0 -- -- 45
2018-05-23 14:00:00 21.7 7 Nordeste 25 Nordeste 0 -- -- 46
2018-05-23 13:00:00 22.2 8 Nordeste 21 Nordeste 0 -- -- 44
2018-05-23 12:00:00 21.9 6 Este 15 Nordeste 0 -- -- 41
2018-05-23 11:00:00 18.6 4 Sudoeste 30 Nordeste 0.2 -- -- 61
2018-05-23 10:00:00 17.3 0 Calma 14 Nordeste 0 -- -- 68
2018-05-23 09:00:00 17.2 0 Calma 4 Nordeste 0 -- -- 60
2018-05-23 08:00:00 15.3 0 Calma 5 Nordeste 0 -- -- 66
2018-05-23 07:00:00 15 0 Calma -- -- 0 -- -- 63
2018-05-23 06:00:00 14.4 0 Calma -- -- 0 -- -- 70
2018-05-23 05:00:00 15 0 Calma 6 Nordeste 0 -- -- 66
2018-05-23 04:00:00 15.6 4 Nordeste 8 Nordeste 0 -- -- 63
2018-05-23 03:00:00 15.2 0 Calma 3 Nordeste 0 -- -- 68
2018-05-23 02:00:00 15.4 3 Nordeste 4 Nordeste 0 -- -- 66
2018-05-23 01:00:00 15.4 2 Este 3 Nordeste 0 -- -- 70
2018-05-23 00:00:00 15.7 0 Calma 4 Nordeste 0 -- -- 71
2018-05-22 23:00:00 16.4 2 Este 5 Este 0 -- -- 67
2018-05-22 22:00:00 17.6 0 Calma 4 Oeste 0 -- -- 65
2018-05-22 21:00:00 19.3 0 Calma 13 Sudoeste 0 -- -- 57
2018-05-22 20:00:00 21.2 8 Sur 15 Sudoeste 0 -- -- 48
2018-05-22 19:00:00 23 5 Sudoeste 14 Sudoeste 0 -- -- 42
2018-05-22 18:00:00 23.1 6 Sudoeste 18 Sudoeste 0 -- -- 41
2018-05-22 17:00:00 23.2 8 Sur 18 Sur 0 -- -- 47
2018-05-22 16:00:00 23.9 9 Sur 18 Sudoeste 0 -- -- 42
2018-05-22 15:00:00 22.9 9 Sur 18 Sur 0 -- -- 44
2018-05-22 14:00:00 22.6 10 Sur 18 Sur 0 -- -- 45
2018-05-22 13:00:00 22.4 5 Sur 13 Sudoeste 0 -- -- 51
2018-05-22 12:00:00 21.6 -- -- -- -- 0 -- -- 55
2018-05-22 11:00:00 20.7 7 Nordeste 13 Nordeste 0 -- -- 57
2018-05-22 10:00:00 19.7 2 Sudeste 9 Nordeste 0 -- -- 59
2018-05-22 09:00:00 16.9 0 Calma 6 Sur 0 -- -- 65
2018-05-22 08:00:00 14.1 0 Calma 6 Nordeste 0 -- -- 76
2018-05-22 07:00:00 13.5 0 Calma 10 Nordeste 0 -- -- 76
2018-05-22 06:00:00 14 7 Nordeste 10 Nordeste 0 -- -- 74
2018-05-22 05:00:00 13.4 0 Calma 9 Nordeste 0 -- -- 80
2018-05-22 04:00:00 13.4 4 Nordeste 7 Nordeste 0 -- -- 79
2018-05-22 03:00:00 13.7 5 Este 8 Nordeste 0 -- -- 80
2018-05-22 02:00:00 13.7 0 Calma 8 Nordeste 0 -- -- 85
2018-05-22 01:00:00 13.8 3 Nordeste 6 Nordeste 0 -- -- 86
2018-05-22 00:00:00 14.2 3 Este 11 Nordeste 0 -- -- 86